sensor_id;sensor_type;location;lat;lon;timestamp;pressure;altitude;pressure_sealevel;temperature;humidity
39051;BME280;24805;55.852;37.644;2023-01-28T00:01:30;100078.34;;;1.24;64.30
39051;BME280;24805;55.852;37.644;2023-01-28T00:06:32;100070.94;;;1.18;64.47
39051;BME280;24805;55.852;37.644;2023-01-28T00:11:34;100073.84;;;1.13;64.57
39051;BME280;24805;55.852;37.644;2023-01-28T00:16:36;100072.06;;;1.14;64.12
39051;BME280;24805;55.852;37.644;2023-01-28T00:21:38;100072.28;;;1.11;63.61
39051;BME280;24805;55.852;37.644;2023-01-28T00:26:40;100077.91;;;1.04;63.97
39051;BME280;24805;55.852;37.644;2023-01-28T00:31:43;100079.38;;;0.96;63.54
39051;BME280;24805;55.852;37.644;2023-01-28T00:36:45;100083.25;;;0.90;64.09
39051;BME280;24805;55.852;37.644;2023-01-28T00:41:58;100085.31;;;0.85;63.90
39051;BME280;24805;55.852;37.644;2023-01-28T00:47:00;100082.91;;;0.82;63.72
39051;BME280;24805;55.852;37.644;2023-01-28T00:52:02;100083.22;;;0.78;63.70
39051;BME280;24805;55.852;37.644;2023-01-28T00:57:04;100084.38;;;0.74;63.38
39051;BME280;24805;55.852;37.644;2023-01-28T01:02:07;100095.00;;;0.71;63.49
39051;BME280;24805;55.852;37.644;2023-01-28T01:07:15;100090.63;;;0.71;63.33
39051;BME280;24805;55.852;37.644;2023-01-28T01:12:17;100089.16;;;0.67;63.38
39051;BME280;24805;55.852;37.644;2023-01-28T01:17:20;100081.00;;;0.59;63.57
39051;BME280;24805;55.852;37.644;2023-01-28T01:22:22;100087.56;;;0.64;63.59
39051;BME280;24805;55.852;37.644;2023-01-28T01:27:24;100092.69;;;0.66;63.30
39051;BME280;24805;55.852;37.644;2023-01-28T01:32:31;100098.34;;;0.73;63.48
39051;BME280;24805;55.852;37.644;2023-01-28T01:37:34;100089.25;;;0.65;63.49
39051;BME280;24805;55.852;37.644;2023-01-28T01:42:36;100092.50;;;0.69;63.49
39051;BME280;24805;55.852;37.644;2023-01-28T01:47:55;100090.97;;;0.79;63.23
39051;BME280;24805;55.852;37.644;2023-01-28T01:53:06;100084.47;;;0.85;62.94
39051;BME280;24805;55.852;37.644;2023-01-28T01:58:14;100080.28;;;0.82;62.92
39051;BME280;24805;55.852;37.644;2023-01-28T02:03:20;100089.59;;;0.74;63.18
39051;BME280;24805;55.852;37.644;2023-01-28T02:08:24;100082.69;;;0.60;62.95
39051;BME280;24805;55.852;37.644;2023-01-28T02:13:30;100079.31;;;0.58;63.22
39051;BME280;24805;55.852;37.644;2023-01-28T02:18:34;100089.31;;;0.51;63.44
39051;BME280;24805;55.852;37.644;2023-01-28T02:39:37;100101.06;;;0.58;63.44
39051;BME280;24805;55.852;37.644;2023-01-28T02:44:41;100105.19;;;0.48;63.68
39051;BME280;24805;55.852;37.644;2023-01-28T02:49:51;100112.44;;;0.57;63.54
39051;BME280;24805;55.852;37.644;2023-01-28T02:55:38;100118.72;;;0.67;63.23
39051;BME280;24805;55.852;37.644;2023-01-28T03:00:55;100124.66;;;0.57;63.38
39051;BME280;24805;55.852;37.644;2023-01-28T03:06:05;100121.28;;;0.55;63.16
39051;BME280;24805;55.852;37.644;2023-01-28T03:11:08;100125.97;;;0.50;62.70
39051;BME280;24805;55.852;37.644;2023-01-28T03:16:29;100125.88;;;0.51;62.28
39051;BME280;24805;55.852;37.644;2023-01-28T03:21:52;100130.25;;;0.51;62.13
39051;BME280;24805;55.852;37.644;2023-01-28T03:32:57;100127.00;;;0.47;61.97
39051;BME280;24805;55.852;37.644;2023-01-28T03:38:19;100127.09;;;0.46;61.54
39051;BME280;24805;55.852;37.644;2023-01-28T03:43:26;100120.72;;;0.37;61.18
39051;BME280;24805;55.852;37.644;2023-01-28T03:48:29;100128.00;;;0.32;60.85
39051;BME280;24805;55.852;37.644;2023-01-28T03:53:33;100137.88;;;0.27;61.04
39051;BME280;24805;55.852;37.644;2023-01-28T03:58:35;100132.75;;;0.25;61.31
39051;BME280;24805;55.852;37.644;2023-01-28T04:03:58;100126.50;;;0.28;61.06
39051;BME280;24805;55.852;37.644;2023-01-28T04:09:01;100136.84;;;0.29;60.88
39051;BME280;24805;55.852;37.644;2023-01-28T04:14:14;100134.78;;;0.34;60.87
39051;BME280;24805;55.852;37.644;2023-01-28T04:19:26;100132.09;;;0.36;60.67
39051;BME280;24805;55.852;37.644;2023-01-28T04:24:30;100131.63;;;0.29;60.40
39051;BME280;24805;55.852;37.644;2023-01-28T04:29:32;100128.03;;;0.18;60.77
39051;BME280;24805;55.852;37.644;2023-01-28T04:34:52;100120.88;;;0.07;60.79
39051;BME280;24805;55.852;37.644;2023-01-28T04:40:12;100129.53;;;0.08;60.99
39051;BME280;24805;55.852;37.644;2023-01-28T04:45:16;100140.16;;;0.05;60.70
39051;BME280;24805;55.852;37.644;2023-01-28T04:50:36;100111.69;;;-0.13;60.59
39051;BME280;24805;55.852;37.644;2023-01-28T04:55:49;100135.53;;;-0.05;60.89
39051;BME280;24805;55.852;37.644;2023-01-28T05:00:57;100143.69;;;0.04;60.69
39051;BME280;24805;55.852;37.644;2023-01-28T05:06:00;100156.59;;;-0.08;60.61
39051;BME280;24805;55.852;37.644;2023-01-28T05:11:13;100153.22;;;-0.10;60.93
39051;BME280;24805;55.852;37.644;2023-01-28T05:16:16;100151.56;;;-0.11;60.70
39051;BME280;24805;55.852;37.644;2023-01-28T05:21:19;100160.03;;;-0.07;60.59
39051;BME280;24805;55.852;37.644;2023-01-28T05:26:27;100159.66;;;-0.01;60.76
39051;BME280;24805;55.852;37.644;2023-01-28T05:31:29;100159.00;;;-0.05;60.72
39051;BME280;24805;55.852;37.644;2023-01-28T05:36:31;100160.69;;;-0.04;60.81
39051;BME280;24805;55.852;37.644;2023-01-28T05:41:39;100159.94;;;-0.06;60.63
39051;BME280;24805;55.852;37.644;2023-01-28T05:46:41;100160.97;;;-0.08;60.80
39051;BME280;24805;55.852;37.644;2023-01-28T05:52:09;100162.63;;;-0.07;60.82
39051;BME280;24805;55.852;37.644;2023-01-28T05:57:12;100175.59;;;-0.06;60.79
39051;BME280;24805;55.852;37.644;2023-01-28T06:02:14;100176.34;;;-0.04;60.78
39051;BME280;24805;55.852;37.644;2023-01-28T06:07:17;100177.78;;;0.00;60.73
39051;BME280;24805;55.852;37.644;2023-01-28T06:12:22;100183.00;;;0.00;60.63
39051;BME280;24805;55.852;37.644;2023-01-28T06:17:47;100178.53;;;0.03;60.12
39051;BME280;24805;55.852;37.644;2023-01-28T06:23:00;100179.19;;;0.06;60.25
39051;BME280;24805;55.852;37.644;2023-01-28T06:28:02;100176.59;;;0.06;60.42
39051;BME280;24805;55.852;37.644;2023-01-28T06:33:04;100178.25;;;0.07;59.98
39051;BME280;24805;55.852;37.644;2023-01-28T06:38:07;100190.47;;;0.07;60.00
39051;BME280;24805;55.852;37.644;2023-01-28T06:43:09;100199.97;;;0.08;59.24
39051;BME280;24805;55.852;37.644;2023-01-28T06:48:11;100192.25;;;0.06;59.39
39051;BME280;24805;55.852;37.644;2023-01-28T06:53:14;100204.53;;;0.04;59.45
39051;BME280;24805;55.852;37.644;2023-01-28T06:58:16;100203.78;;;0.02;59.06
39051;BME280;24805;55.852;37.644;2023-01-28T07:03:18;100206.50;;;0.00;59.17
39051;BME280;24805;55.852;37.644;2023-01-28T07:08:21;100197.19;;;-0.04;58.41
39051;BME280;24805;55.852;37.644;2023-01-28T07:13:23;100201.75;;;-0.07;58.51
39051;BME280;24805;55.852;37.644;2023-01-28T07:18:25;100199.81;;;-0.04;58.46
39051;BME280;24805;55.852;37.644;2023-01-28T07:23:27;100185.44;;;0.04;58.44
39051;BME280;24805;55.852;37.644;2023-01-28T07:28:31;100188.69;;;0.07;58.29
39051;BME280;24805;55.852;37.644;2023-01-28T07:33:33;100194.94;;;0.19;58.19
39051;BME280;24805;55.852;37.644;2023-01-28T07:38:35;100199.56;;;0.28;57.59
39051;BME280;24805;55.852;37.644;2023-01-28T07:43:37;100201.63;;;0.37;57.12
39051;BME280;24805;55.852;37.644;2023-01-28T07:48:39;100203.91;;;0.42;57.23
39051;BME280;24805;55.852;37.644;2023-01-28T07:53:41;100195.06;;;0.44;56.90
39051;BME280;24805;55.852;37.644;2023-01-28T07:58:43;100203.53;;;0.48;56.34
39051;BME280;24805;55.852;37.644;2023-01-28T08:03:45;100201.22;;;0.57;56.33
39051;BME280;24805;55.852;37.644;2023-01-28T08:08:47;100189.88;;;0.71;56.41
39051;BME280;24805;55.852;37.644;2023-01-28T08:13:50;100197.94;;;0.81;56.15
39051;BME280;24805;55.852;37.644;2023-01-28T08:18:52;100193.81;;;0.91;55.86
39051;BME280;24805;55.852;37.644;2023-01-28T08:23:55;100202.09;;;0.97;55.17
39051;BME280;24805;55.852;37.644;2023-01-28T08:28:57;100193.06;;;0.89;54.89
39051;BME280;24805;55.852;37.644;2023-01-28T08:33:59;100188.03;;;0.86;55.25
39051;BME280;24805;55.852;37.644;2023-01-28T08:39:03;100191.28;;;0.89;54.92
39051;BME280;24805;55.852;37.644;2023-01-28T08:44:05;100178.41;;;0.86;55.14
39051;BME280;24805;55.852;37.644;2023-01-28T08:49:07;100184.63;;;0.98;55.17
39051;BME280;24805;55.852;37.644;2023-01-28T08:54:09;100174.84;;;1.14;55.02
39051;BME280;24805;55.852;37.644;2023-01-28T08:59:11;100177.47;;;1.27;54.87
39051;BME280;24805;55.852;37.644;2023-01-28T09:04:13;100175.38;;;1.32;54.29
39051;BME280;24805;55.852;37.644;2023-01-28T09:09:15;100171.41;;;1.26;54.68
39051;BME280;24805;55.852;37.644;2023-01-28T09:14:17;100172.34;;;1.25;53.97
39051;BME280;24805;55.852;37.644;2023-01-28T09:19:19;100178.59;;;1.23;53.98
39051;BME280;24805;55.852;37.644;2023-01-28T09:24:22;100176.00;;;1.23;54.52
39051;BME280;24805;55.852;37.644;2023-01-28T09:29:24;100170.47;;;1.27;54.08
39051;BME280;24805;55.852;37.644;2023-01-28T09:34:26;100166.50;;;1.34;54.10
39051;BME280;24805;55.852;37.644;2023-01-28T09:39:28;100163.44;;;1.41;53.41
39051;BME280;24805;55.852;37.644;2023-01-28T09:44:43;100145.47;;;1.49;53.29
39051;BME280;24805;55.852;37.644;2023-01-28T09:49:54;100151.03;;;1.57;53.45
39051;BME280;24805;55.852;37.644;2023-01-28T10:00:15;100146.84;;;1.67;53.54
39051;BME280;24805;55.852;37.644;2023-01-28T10:05:43;100155.72;;;1.64;53.99
39051;BME280;24805;55.852;37.644;2023-01-28T10:16:28;100151.34;;;1.52;53.52
39051;BME280;24805;55.852;37.644;2023-01-28T10:21:53;100132.38;;;1.61;53.57
39051;BME280;24805;55.852;37.644;2023-01-28T10:26:58;100120.78;;;1.40;53.36
39051;BME280;24805;55.852;37.644;2023-01-28T10:37:16;100123.81;;;1.47;53.26
39051;BME280;24805;55.852;37.644;2023-01-28T10:42:31;100107.41;;;1.57;53.37
39051;BME280;24805;55.852;37.644;2023-01-28T10:47:41;100113.78;;;1.66;53.11
39051;BME280;24805;55.852;37.644;2023-01-28T10:53:04;100103.91;;;1.82;53.60
39051;BME280;24805;55.852;37.644;2023-01-28T10:58:16;100100.56;;;1.80;52.83
39051;BME280;24805;55.852;37.644;2023-01-28T11:03:19;100094.09;;;1.73;53.12
39051;BME280;24805;55.852;37.644;2023-01-28T11:08:24;100093.16;;;1.74;52.90
39051;BME280;24805;55.852;37.644;2023-01-28T11:13:28;100106.25;;;1.74;53.00
39051;BME280;24805;55.852;37.644;2023-01-28T11:18:34;100091.16;;;1.78;53.29
39051;BME280;24805;55.852;37.644;2023-01-28T11:23:51;100084.94;;;1.91;52.67
39051;BME280;24805;55.852;37.644;2023-01-28T11:28:54;100083.31;;;1.78;52.53
39051;BME280;24805;55.852;37.644;2023-01-28T11:33:58;100085.47;;;1.84;52.62
39051;BME280;24805;55.852;37.644;2023-01-28T11:39:15;100076.25;;;1.91;53.10
39051;BME280;24805;55.852;37.644;2023-01-28T11:44:25;100073.13;;;1.98;52.51
39051;BME280;24805;55.852;37.644;2023-01-28T12:06:24;100054.94;;;2.08;53.00
39051;BME280;24805;55.852;37.644;2023-01-28T12:11:48;100045.44;;;2.07;52.54
39051;BME280;24805;55.852;37.644;2023-01-28T12:17:23;100041.13;;;2.06;52.38
39051;BME280;24805;55.852;37.644;2023-01-28T12:28:17;100036.00;;;2.04;53.05
39051;BME280;24805;55.852;37.644;2023-01-28T12:39:06;100024.56;;;1.94;52.70
39051;BME280;24805;55.852;37.644;2023-01-28T12:44:24;100016.09;;;1.91;52.99
39051;BME280;24805;55.852;37.644;2023-01-28T12:49:34;100016.72;;;1.82;53.11
39051;BME280;24805;55.852;37.644;2023-01-28T13:00:12;100006.53;;;1.66;53.42
39051;BME280;24805;55.852;37.644;2023-01-28T13:05:29;99995.91;;;1.56;53.79
39051;BME280;24805;55.852;37.644;2023-01-28T13:15:39;100012.78;;;1.40;53.82
39051;BME280;24805;55.852;37.644;2023-01-28T13:20:50;100009.44;;;1.37;54.11
39051;BME280;24805;55.852;37.644;2023-01-28T13:25:56;100012.72;;;1.16;54.92
39051;BME280;24805;55.852;37.644;2023-01-28T13:31:12;99995.13;;;1.05;54.95
39051;BME280;24805;55.852;37.644;2023-01-28T13:36:32;100000.78;;;1.12;54.74
39051;BME280;24805;55.852;37.644;2023-01-28T13:41:47;99997.75;;;0.92;55.25
39051;BME280;24805;55.852;37.644;2023-01-28T13:46:49;99999.63;;;1.28;54.63
39051;BME280;24805;55.852;37.644;2023-01-28T13:52:03;99999.25;;;0.96;55.28
39051;BME280;24805;55.852;37.644;2023-01-28T14:18:56;99981.25;;;0.66;56.18
39051;BME280;24805;55.852;37.644;2023-01-28T14:24:01;99964.34;;;0.59;56.25
39051;BME280;24805;55.852;37.644;2023-01-28T14:34:34;99969.03;;;0.80;56.20
39051;BME280;24805;55.852;37.644;2023-01-28T14:44:47;99962.66;;;0.71;56.47
39051;BME280;24805;55.852;37.644;2023-01-28T14:50:06;99956.00;;;0.80;56.36
39051;BME280;24805;55.852;37.644;2023-01-28T14:55:42;99951.69;;;0.79;56.75
39051;BME280;24805;55.852;37.644;2023-01-28T15:00:55;99962.16;;;0.79;56.58
39051;BME280;24805;55.852;37.644;2023-01-28T15:11:07;99950.53;;;0.70;56.96
39051;BME280;24805;55.852;37.644;2023-01-28T15:16:17;99956.59;;;0.71;56.88
39051;BME280;24805;55.852;37.644;2023-01-28T15:21:21;99952.63;;;0.65;57.05
39051;BME280;24805;55.852;37.644;2023-01-28T15:26:26;99946.47;;;0.66;57.08
39051;BME280;24805;55.852;37.644;2023-01-28T15:31:33;99952.75;;;0.76;57.05
39051;BME280;24805;55.852;37.644;2023-01-28T15:36:40;99943.34;;;0.74;57.12
39051;BME280;24805;55.852;37.644;2023-01-28T15:41:44;99936.63;;;0.82;56.95
39051;BME280;24805;55.852;37.644;2023-01-28T15:46:48;99936.63;;;0.82;56.66
39051;BME280;24805;55.852;37.644;2023-01-28T15:51:52;99905.09;;;0.73;56.35
39051;BME280;24805;55.852;37.644;2023-01-28T15:56:54;99933.06;;;0.83;56.58
39051;BME280;24805;55.852;37.644;2023-01-28T16:02:21;99923.97;;;1.01;56.50
39051;BME280;24805;55.852;37.644;2023-01-28T16:07:26;99921.28;;;0.90;56.31
39051;BME280;24805;55.852;37.644;2023-01-28T16:12:29;99905.09;;;0.85;56.21
39051;BME280;24805;55.852;37.644;2023-01-28T16:17:38;99905.59;;;0.90;56.61
39051;BME280;24805;55.852;37.644;2023-01-28T16:22:41;99902.19;;;0.77;56.72
39051;BME280;24805;55.852;37.644;2023-01-28T16:27:44;99902.19;;;0.77;56.76
39051;BME280;24805;55.852;37.644;2023-01-28T16:32:46;99913.03;;;0.84;57.12
39051;BME280;24805;55.852;37.644;2023-01-28T16:37:49;99898.19;;;0.84;56.73
39051;BME280;24805;55.852;37.644;2023-01-28T16:42:53;99897.75;;;0.90;56.82
39051;BME280;24805;55.852;37.644;2023-01-28T16:47:56;99894.41;;;0.88;57.02
39051;BME280;24805;55.852;37.644;2023-01-28T16:52:58;99892.66;;;0.89;56.88
39051;BME280;24805;55.852;37.644;2023-01-28T16:58:00;99887.31;;;0.90;56.98
39051;BME280;24805;55.852;37.644;2023-01-28T17:03:02;99890.13;;;0.87;56.84
39051;BME280;24805;55.852;37.644;2023-01-28T17:08:06;99889.41;;;0.85;57.02
39051;BME280;24805;55.852;37.644;2023-01-28T17:13:08;99854.03;;;0.68;57.13
39051;BME280;24805;55.852;37.644;2023-01-28T17:18:11;99882.13;;;0.78;57.58
39051;BME280;24805;55.852;37.644;2023-01-28T17:23:14;99878.22;;;0.83;57.58
39051;BME280;24805;55.852;37.644;2023-01-28T17:28:17;99871.56;;;0.79;57.57
39051;BME280;24805;55.852;37.644;2023-01-28T17:33:19;99876.56;;;0.82;57.46
39051;BME280;24805;55.852;37.644;2023-01-28T17:38:21;99866.44;;;0.78;57.23
39051;BME280;24805;55.852;37.644;2023-01-28T17:43:23;99857.16;;;0.74;57.71
39051;BME280;24805;55.852;37.644;2023-01-28T17:48:26;99860.59;;;0.74;57.94
39051;BME280;24805;55.852;37.644;2023-01-28T17:53:30;99859.03;;;0.72;57.82
39051;BME280;24805;55.852;37.644;2023-01-28T17:58:32;99858.00;;;0.74;57.83
39051;BME280;24805;55.852;37.644;2023-01-28T18:03:34;99857.88;;;0.76;57.86
39051;BME280;24805;55.852;37.644;2023-01-28T18:08:36;99861.00;;;0.81;57.91
39051;BME280;24805;55.852;37.644;2023-01-28T18:13:40;99840.63;;;0.86;58.00
39051;BME280;24805;55.852;37.644;2023-01-28T18:18:44;99841.97;;;0.91;57.50
39051;BME280;24805;55.852;37.644;2023-01-28T18:23:46;99841.75;;;0.94;57.54
39051;BME280;24805;55.852;37.644;2023-01-28T18:28:49;99810.22;;;0.85;57.72
39051;BME280;24805;55.852;37.644;2023-01-28T18:33:51;99834.66;;;0.96;57.76
39051;BME280;24805;55.852;37.644;2023-01-28T18:38:53;99829.41;;;0.96;57.51
39051;BME280;24805;55.852;37.644;2023-01-28T18:43:55;99817.31;;;0.95;57.59
39051;BME280;24805;55.852;37.644;2023-01-28T18:48:58;99810.50;;;0.93;57.43
39051;BME280;24805;55.852;37.644;2023-01-28T18:54:02;99807.16;;;0.91;57.73
39051;BME280;24805;55.852;37.644;2023-01-28T18:59:05;99809.88;;;0.89;57.83
39051;BME280;24805;55.852;37.644;2023-01-28T19:04:08;99810.22;;;0.85;57.87
39051;BME280;24805;55.852;37.644;2023-01-28T19:09:12;99797.78;;;0.88;58.11
39051;BME280;24805;55.852;37.644;2023-01-28T19:14:15;99795.78;;;0.92;58.14
39051;BME280;24805;55.852;37.644;2023-01-28T19:19:17;99799.00;;;0.95;57.83
39051;BME280;24805;55.852;37.644;2023-01-28T19:24:20;99802.09;;;1.00;57.65
39051;BME280;24805;55.852;37.644;2023-01-28T19:29:22;99804.28;;;1.07;57.75
39051;BME280;24805;55.852;37.644;2023-01-28T19:34:26;99796.22;;;1.10;57.63
39051;BME280;24805;55.852;37.644;2023-01-28T19:39:28;99795.91;;;1.14;57.38
39051;BME280;24805;55.852;37.644;2023-01-28T19:44:32;99789.63;;;1.17;57.64
39051;BME280;24805;55.852;37.644;2023-01-28T19:49:35;99786.78;;;1.20;57.32
39051;BME280;24805;55.852;37.644;2023-01-28T19:54:38;99777.88;;;1.22;57.16
39051;BME280;24805;55.852;37.644;2023-01-28T19:59:41;99780.88;;;1.29;57.21
39051;BME280;24805;55.852;37.644;2023-01-28T20:04:44;99767.81;;;1.29;57.28
39051;BME280;24805;55.852;37.644;2023-01-28T20:10:01;99755.81;;;1.26;56.84
39051;BME280;24805;55.852;37.644;2023-01-28T20:15:04;99757.56;;;1.26;57.03
39051;BME280;24805;55.852;37.644;2023-01-28T20:20:07;99758.41;;;1.26;57.31
39051;BME280;24805;55.852;37.644;2023-01-28T20:25:10;99746.06;;;1.28;57.09
39051;BME280;24805;55.852;37.644;2023-01-28T20:30:13;99738.22;;;1.28;56.87
39051;BME280;24805;55.852;37.644;2023-01-28T20:35:16;99736.66;;;1.26;56.88
39051;BME280;24805;55.852;37.644;2023-01-28T20:40:18;99736.94;;;1.34;56.95
39051;BME280;24805;55.852;37.644;2023-01-28T20:45:21;99736.22;;;1.32;57.27
39051;BME280;24805;55.852;37.644;2023-01-28T20:50:23;99738.00;;;1.31;57.16
39051;BME280;24805;55.852;37.644;2023-01-28T20:55:25;99731.22;;;1.29;57.51
39051;BME280;24805;55.852;37.644;2023-01-28T21:00:29;99727.78;;;1.28;57.17
39051;BME280;24805;55.852;37.644;2023-01-28T21:05:31;99719.09;;;1.28;57.36
39051;BME280;24805;55.852;37.644;2023-01-28T21:10:34;99719.94;;;1.28;58.05
39051;BME280;24805;55.852;37.644;2023-01-28T21:15:37;99720.00;;;1.16;57.69
39051;BME280;24805;55.852;37.644;2023-01-28T21:20:39;99692.53;;;0.99;58.23
39051;BME280;24805;55.852;37.644;2023-01-28T21:25:45;99700.09;;;1.02;58.82
39051;BME280;24805;55.852;37.644;2023-01-28T21:30:52;99694.22;;;0.87;58.66
39051;BME280;24805;55.852;37.644;2023-01-28T21:35:54;99692.06;;;0.81;59.59
39051;BME280;24805;55.852;37.644;2023-01-28T21:41:00;99685.53;;;0.76;59.58
39051;BME280;24805;55.852;37.644;2023-01-28T21:46:03;99682.50;;;0.69;59.61
39051;BME280;24805;55.852;37.644;2023-01-28T21:51:06;99675.94;;;0.63;60.10
39051;BME280;24805;55.852;37.644;2023-01-28T21:56:27;99677.47;;;0.55;60.22
39051;BME280;24805;55.852;37.644;2023-01-28T22:01:29;99673.63;;;0.48;60.23
39051;BME280;24805;55.852;37.644;2023-01-28T22:06:31;99671.88;;;0.36;60.69
39051;BME280;24805;55.852;37.644;2023-01-28T22:11:33;99678.25;;;0.31;61.08
39051;BME280;24805;55.852;37.644;2023-01-28T22:16:36;99670.84;;;0.38;60.95
39051;BME280;24805;55.852;37.644;2023-01-28T22:21:40;99661.94;;;0.41;61.83
39051;BME280;24805;55.852;37.644;2023-01-28T22:26:43;99659.94;;;0.44;61.67
39051;BME280;24805;55.852;37.644;2023-01-28T22:31:47;99646.13;;;0.55;61.20
39051;BME280;24805;55.852;37.644;2023-01-28T22:36:50;99649.19;;;0.49;60.78
39051;BME280;24805;55.852;37.644;2023-01-28T22:41:52;99637.66;;;0.27;61.63
39051;BME280;24805;55.852;37.644;2023-01-28T22:46:54;99638.34;;;0.18;61.94
39051;BME280;24805;55.852;37.644;2023-01-28T22:51:56;99634.78;;;0.19;62.06
39051;BME280;24805;55.852;37.644;2023-01-28T22:56:58;99629.16;;;0.13;62.14
39051;BME280;24805;55.852;37.644;2023-01-28T23:02:00;99614.84;;;0.18;62.41
39051;BME280;24805;55.852;37.644;2023-01-28T23:07:02;99620.91;;;0.19;61.27
39051;BME280;24805;55.852;37.644;2023-01-28T23:12:06;99609.22;;;0.12;61.17
39051;BME280;24805;55.852;37.644;2023-01-28T23:17:08;99590.34;;;0.08;61.44
39051;BME280;24805;55.852;37.644;2023-01-28T23:22:31;99585.91;;;0.21;61.07
39051;BME280;24805;55.852;37.644;2023-01-28T23:27:52;99592.88;;;0.33;61.15
39051;BME280;24805;55.852;37.644;2023-01-28T23:32:56;99578.66;;;0.38;59.82
39051;BME280;24805;55.852;37.644;2023-01-28T23:37:58;99580.81;;;0.44;59.67
39051;BME280;24805;55.852;37.644;2023-01-28T23:43:00;99579.66;;;0.48;58.48
39051;BME280;24805;55.852;37.644;2023-01-28T23:48:03;99562.81;;;0.52;58.04
39051;BME280;24805;55.852;37.644;2023-01-28T23:53:05;99558.66;;;0.49;57.41
39051;BME280;24805;55.852;37.644;2023-01-28T23:58:13;99563.38;;;0.44;57.42
